Terminal Aerodrome Forecast
Issued by NWS

Home | Current Version | Previous Version | Text Only | Print | Product List | Glossary On
Versions: 1 2 3 4 5 6 7 8 9 10 11 12 13 14 15 16 17 18 19 20 21 22 23
000
FTUS45 KABQ 260547 RRB
TAFSAF
TAF
KSAF 260547Z 2606/2706 14027G35KT P6SM -RA VCTS OVC070CB
     FM260900 15025G35KT 4SM -SN OVC015
     FM261700 13025G35KT 2SM -SN OVC007
     FM270000 11015KT 1 1/2SM -SN OVC006=

USA.gov is the U.S. government's official web portal to all federal, state and local government web resources and services.